Time;durP1;ratioP1;P1;durP2;ratioP2;P2;SDS_P1;SDS_P2;PMS_P1;PMS_P2;Temp;Humidity;BMP_temperature;BMP_pressure;BME280_temperature;BME280_humidity;BME280_pressure;Samples;Min_cycle;Max_cycle;Signal;HPM_P1;HPM_P2
2021/12/17 00:00:27;;;;;;;17.33;8.02;;;9.00;99.90;;;;;;5076306;28;20016;-83
2021/12/17 00:03:10;;;;;;;17.95;8.60;;;9.00;99.90;;;;;;5058277;28;20469;-83
2021/12/17 00:08:33;;;;;;;23.33;9.55;;;9.00;99.90;;;;;;5021087;28;20049;-83
2021/12/17 00:11:00;;;;;;;20.20;8.80;;;9.00;99.90;;;;;;5076239;28;20035;-83
2021/12/17 00:13:26;;;;;;;18.50;8.48;;;9.00;99.90;;;;;;5076597;28;20032;-83
2021/12/17 00:15:52;;;;;;;20.83;8.98;;;8.90;99.90;;;;;;5076432;28;20380;-83
2021/12/17 00:18:36;;;;;;;17.23;8.07;;;9.00;99.90;;;;;;5076391;28;20027;-83
2021/12/17 00:48:36;;;;;;;18.73;7.65;;;8.90;99.90;;;;;;5065701;28;20074;-83
2021/12/17 00:53:53;;;;;;;13.77;6.85;;;8.90;99.90;;;;;;5075388;28;20029;-83
2021/12/17 00:56:19;;;;;;;18.63;7.60;;;8.90;99.90;;;;;;5075248;28;20044;-83
2021/12/17 00:58:45;;;;;;;19.98;8.15;;;8.90;99.90;;;;;;5057103;28;20101;-83
2021/12/17 01:01:11;;;;;;;15.05;7.38;;;8.90;99.90;;;;;;5075205;28;20025;-83
2021/12/17 01:03:36;;;;;;;19.23;8.18;;;8.90;99.90;;;;;;5075024;28;20030;-83
2021/12/17 01:06:02;;;;;;;17.35;7.95;;;8.90;99.90;;;;;;5074711;28;20488;-83
2021/12/17 01:08:28;;;;;;;17.50;8.35;;;8.90;99.90;;;;;;5074942;28;20396;-83
2021/12/17 01:10:56;;;;;;;24.60;8.02;;;9.00;99.90;;;;;;5075005;28;20534;-83
2021/12/17 01:13:23;;;;;;;20.90;8.73;;;8.90;99.90;;;;;;5057552;28;20021;-83
2021/12/17 01:15:49;;;;;;;24.75;9.32;;;8.90;99.90;;;;;;5075564;28;20115;-83
2021/12/17 01:18:18;;;;;;;22.38;9.02;;;8.90;99.90;;;;;;5074983;28;20021;-83
2021/12/17 01:21:27;;;;;;;24.20;9.27;;;8.90;99.90;;;;;;5057185;28;20020;-83
2021/12/17 01:37:21;;;;;;;24.42;9.10;;;8.80;99.90;;;;;;5075182;28;20545;-83
2021/12/17 01:40:43;;;;;;;22.27;8.52;;;8.80;99.90;;;;;;5075213;28;20082;-83
2021/12/17 01:42:37;;;;;;;22.30;7.32;;;8.70;99.90;;;;;;5074408;28;20083;-83
2021/12/17 01:45:04;;;;;;;21.10;7.68;;;8.80;99.90;;;;;;5074875;28;20020;-83
2021/12/17 01:47:30;;;;;;;21.52;7.43;;;8.70;99.90;;;;;;5074340;28;20056;-83
2021/12/17 02:00:54;;;;;;;18.92;6.68;;;8.70;99.90;;;;;;5079254;28;20071;-83
2021/12/17 02:03:20;;;;;;;19.05;5.90;;;8.80;99.90;;;;;;5079055;28;20016;-83
2021/12/17 02:05:46;;;;;;;21.95;6.97;;;8.60;99.90;;;;;;5078502;28;20028;-83
2021/12/17 02:08:12;;;;;;;24.48;6.88;;;8.70;99.90;;;;;;5060476;28;20028;-83
2021/12/17 02:28:44;;;;;;;21.08;5.97;;;8.60;99.90;;;;;;5078743;28;20388;-83
2021/12/17 02:29:58;;;;;;;25.45;7.53;;;8.70;99.90;;;;;;5078023;28;20028;-83
2021/12/17 02:32:26;;;;;;;29.90;6.68;;;8.70;99.90;;;;;;5078197;28;20729;-83
2021/12/17 02:37:21;;;;;;;31.80;7.18;;;8.60;99.90;;;;;;5078757;28;20430;-83
2021/12/17 02:47:44;;;;;;;35.70;7.47;;;8.60;99.90;;;;;;5097853;28;20115;-83
2021/12/17 02:50:11;;;;;;;30.02;6.38;;;8.60;99.90;;;;;;5097428;28;20056;-83
2021/12/17 02:52:38;;;;;;;25.83;6.10;;;8.50;99.90;;;;;;5094825;28;20024;-83
2021/12/17 02:55:07;;;;;;;24.13;5.90;;;8.70;99.90;;;;;;5077348;28;20115;-83
2021/12/17 02:57:35;;;;;;;33.23;6.43;;;8.60;99.90;;;;;;5077754;28;20423;-83
2021/12/17 03:00:04;;;;;;;28.83;6.20;;;8.50;99.90;;;;;;5077978;28;20032;-83
2021/12/17 03:02:31;;;;;;;32.67;5.72;;;8.60;99.90;;;;;;5077586;28;20392;-83
2021/12/17 03:04:57;;;;;;;28.88;5.95;;;8.60;99.90;;;;;;5077008;28;20070;-83
2021/12/17 03:07:23;;;;;;;24.17;4.95;;;8.50;99.90;;;;;;5076532;28;20029;-83
2021/12/17 03:12:19;;;;;;;39.38;6.80;;;8.50;99.90;;;;;;5077685;28;20032;-83
2021/12/17 03:14:56;;;;;;;29.83;5.97;;;8.60;99.90;;;;;;5078098;28;20021;-83
2021/12/17 03:17:55;;;;;;;29.50;6.47;;;8.60;99.90;;;;;;5059802;28;20033;-83
2021/12/17 03:25:39;;;;;;;24.88;5.50;;;8.50;99.90;;;;;;5077878;28;20097;-83
2021/12/17 03:28:04;;;;;;;31.38;6.47;;;8.60;99.90;;;;;;5076790;28;20481;-83
2021/12/17 03:30:30;;;;;;;25.00;5.32;;;8.50;99.90;;;;;;5077014;28;20387;-83
2021/12/17 03:32:55;;;;;;;25.95;5.35;;;8.60;99.90;;;;;;5077109;28;20020;-83
2021/12/17 03:35:21;;;;;;;30.20;5.18;;;8.60;99.90;;;;;;5059462;28;20024;-83
2021/12/17 03:37:47;;;;;;;24.33;5.45;;;8.70;99.90;;;;;;5059565;28;20380;-83
2021/12/17 03:40:15;;;;;;;23.83;4.95;;;8.50;99.90;;;;;;5077184;28;20032;-83
2021/12/17 03:42:46;;;;;;;20.40;4.90;;;8.50;99.90;;;;;;5058932;28;20049;-83
2021/12/17 03:45:12;;;;;;;21.88;5.32;;;8.60;99.90;;;;;;5076726;28;20017;-83
2021/12/17 03:47:38;;;;;;;19.02;5.38;;;8.60;99.90;;;;;;5076505;28;20053;-83
2021/12/17 03:50:05;;;;;;;16.67;5.32;;;8.50;99.90;;;;;;5058506;28;20028;-83
2021/12/17 03:52:30;;;;;;;17.00;4.82;;;8.60;99.90;;;;;;5075964;28;20024;-83
2021/12/17 03:54:56;;;;;;;19.15;5.13;;;8.60;99.90;;;;;;5076421;28;20540;-83
2021/12/17 03:57:22;;;;;;;21.90;5.30;;;8.50;99.90;;;;;;5076214;28;20491;-82
2021/12/17 03:59:48;;;;;;;19.40;4.85;;;8.50;99.90;;;;;;5076311;28;20059;-83
2021/12/17 04:02:14;;;;;;;20.08;5.30;;;8.50;99.90;;;;;;5058249;28;20028;-83
2021/12/17 04:04:40;;;;;;;16.75;4.43;;;8.50;99.90;;;;;;5075707;28;20032;-83
2021/12/17 04:07:05;;;;;;;19.98;4.95;;;8.60;99.90;;;;;;5075757;28;20024;-83
2021/12/17 04:09:32;;;;;;;21.58;5.47;;;8.50;99.90;;;;;;5075815;28;20091;-83
2021/12/17 04:12:00;;;;;;;19.75;5.95;;;8.50;99.90;;;;;;5058297;28;20017;-83
2021/12/17 04:14:34;;;;;;;27.35;5.47;;;8.60;99.90;;;;;;5076434;28;20020;-83
2021/12/17 04:17:05;;;;;;;24.45;5.50;;;8.60;99.90;;;;;;5075648;28;20028;-83
2021/12/17 04:19:31;;;;;;;21.77;5.80;;;8.50;99.90;;;;;;5057928;28;20124;-83
2021/12/17 04:21:57;;;;;;;20.08;5.22;;;8.60;99.90;;;;;;5058182;28;20059;-83
2021/12/17 04:24:23;;;;;;;14.23;5.45;;;8.50;99.90;;;;;;5058083;28;20032;-83
2021/12/17 04:26:48;;;;;;;19.42;5.90;;;8.50;99.90;;;;;;5057633;28;20082;-83
2021/12/17 04:29:15;;;;;;;22.75;6.55;;;8.60;99.90;;;;;;5075124;28;20028;-83
2021/12/17 04:31:40;;;;;;;30.70;6.35;;;8.50;99.90;;;;;;5057769;28;20580;-83
2021/12/17 04:34:06;;;;;;;18.35;5.75;;;8.50;99.90;;;;;;5075185;28;20525;-83
2021/12/17 04:36:34;;;;;;;27.95;6.55;;;8.50;99.90;;;;;;5075563;28;20034;-83
2021/12/17 04:39:01;;;;;;;22.38;6.22;;;8.50;99.90;;;;;;5075494;28;20092;-83
2021/12/17 05:00:08;;;;;;;32.05;7.00;;;8.40;99.90;;;;;;5058952;28;20052;-83
2021/12/17 05:02:39;;;;;;;40.10;7.38;;;8.40;99.90;;;;;;5075538;28;20033;-83
2021/12/17 05:05:08;;;;;;;43.00;7.70;;;8.50;99.90;;;;;;5075422;28;20103;-83
2021/12/17 05:07:35;;;;;;;36.95;7.80;;;8.50;99.90;;;;;;5075218;28;20108;-83
2021/12/17 05:10:16;;;;;;;27.13;7.68;;;8.40;99.90;;;;;;5075021;28;20089;-83
2021/12/17 05:18:31;;;;;;;38.40;6.90;;;8.40;99.90;;;;;;5074847;28;20028;-83
2021/12/17 05:21:04;;;;;;;29.77;6.63;;;8.40;99.90;;;;;;5076491;28;20090;-83
2021/12/17 05:23:37;;;;;;;31.48;7.20;;;8.40;99.90;;;;;;5076051;28;20029;-83
2021/12/17 05:26:08;;;;;;;40.50;7.63;;;8.40;99.90;;;;;;5075379;28;20043;-83
2021/12/17 05:28:34;;;;;;;48.65;7.95;;;8.50;99.90;;;;;;5053147;28;20024;-83
2021/12/17 05:31:00;;;;;;;31.30;7.35;;;8.40;99.90;;;;;;5057452;28;20017;-83
2021/12/17 05:33:27;;;;;;;40.80;8.15;;;8.50;99.90;;;;;;5066269;28;20024;-83
2021/12/17 05:35:53;;;;;;;50.53;8.32;;;8.40;99.90;;;;;;5069588;28;20028;-83
2021/12/17 05:38:20;;;;;;;50.78;9.00;;;8.40;99.90;;;;;;5052945;28;20111;-83
2021/12/17 05:40:46;;;;;;;47.22;9.10;;;8.40;99.90;;;;;;5068427;28;20025;-83
2021/12/17 05:43:14;;;;;;;36.60;7.88;;;8.50;99.90;;;;;;5063532;28;20051;-83
2021/12/17 05:48:25;;;;;;;29.88;7.65;;;8.50;99.90;;;;;;5064186;28;20029;-84
2021/12/17 05:50:55;;;;;;;41.15;8.63;;;8.50;99.90;;;;;;5060512;28;20542;-83
2021/12/17 05:53:22;;;;;;;47.33;9.13;;;8.50;99.90;;;;;;5061587;28;20027;-85
2021/12/17 05:55:47;;;;;;;47.40;9.35;;;8.50;99.90;;;;;;5069014;28;20485;-84
2021/12/17 05:58:13;;;;;;;42.85;8.98;;;8.50;99.90;;;;;;5059400;28;20025;-83
2021/12/17 06:00:41;;;;;;;44.97;11.18;;;8.50;99.90;;;;;;5055631;28;20667;-84
2021/12/17 06:03:06;;;;;;;41.22;8.77;;;8.50;99.90;;;;;;5055426;28;20024;-84
2021/12/17 06:05:32;;;;;;;34.90;9.15;;;8.40;99.90;;;;;;5055443;28;20097;-84
2021/12/17 06:07:58;;;;;;;55.97;9.57;;;8.40;99.90;;;;;;5073609;28;20024;-83
2021/12/17 06:10:25;;;;;;;40.63;9.27;;;8.50;99.90;;;;;;5073516;28;20020;-83
2021/12/17 06:12:50;;;;;;;51.88;9.02;;;8.40;99.90;;;;;;5044275;28;20104;-84
2021/12/17 06:15:19;;;;;;;31.20;8.55;;;8.50;99.90;;;;;;5069579;28;20071;-83
2021/12/17 06:17:45;;;;;;;33.78;8.40;;;8.50;99.90;;;;;;5073519;28;20015;-83
2021/12/17 06:20:13;;;;;;;41.80;8.68;;;8.40;99.90;;;;;;5073362;28;20023;-81
2021/12/17 06:22:39;;;;;;;51.22;9.23;;;8.50;99.90;;;;;;5073309;28;20028;-81
2021/12/17 06:25:06;;;;;;;80.10;11.43;;;8.50;99.90;;;;;;5073141;28;20032;-81
2021/12/17 06:27:31;;;;;;;42.33;8.27;;;8.50;99.90;;;;;;5073022;28;20063;-81
2021/12/17 06:29:58;;;;;;;41.45;8.07;;;8.50;99.90;;;;;;5072254;28;20033;-81
2021/12/17 06:32:24;;;;;;;38.47;8.00;;;8.60;99.90;;;;;;5053661;28;20025;-81
2021/12/17 06:34:50;;;;;;;29.67;8.25;;;8.50;99.90;;;;;;5053467;28;20036;-81
2021/12/17 06:37:17;;;;;;;33.10;7.60;;;8.50;99.90;;;;;;5053585;28;20021;-80
2021/12/17 06:39:44;;;;;;;28.33;7.47;;;8.60;99.90;;;;;;5053622;28;20036;-80
2021/12/17 06:42:10;;;;;;;32.13;7.32;;;8.60;99.90;;;;;;5067743;28;20045;-81
2021/12/17 06:44:41;;;;;;;34.78;9.15;;;8.60;99.90;;;;;;5073650;28;20012;-81
2021/12/17 06:47:14;;;;;;;35.88;7.10;;;8.50;99.90;;;;;;5056233;28;20047;-83
2021/12/17 06:56:24;;;;;;;38.70;8.52;;;8.50;99.90;;;;;;5010856;28;20111;-83
2021/12/17 07:01:15;;;;;;;40.92;8.82;;;8.60;99.90;;;;;;5045883;28;20085;-83
2021/12/17 07:06:50;;;;;;;36.13;9.32;;;8.60;99.90;;;;;;5054404;28;20531;-83
2021/12/17 07:17:15;;;;;;;45.88;8.82;;;8.60;99.90;;;;;;5059414;28;20530;-81
2021/12/17 07:35:49;;;;;;;37.63;8.52;;;8.70;99.90;;;;;;5060276;28;20021;-83
2021/12/17 07:41:01;;;;;;;38.88;8.25;;;8.60;99.90;;;;;;5057807;28;20033;-83
2021/12/17 07:43:34;;;;;;;42.42;9.25;;;8.70;99.90;;;;;;5061178;28;20071;-83
2021/12/17 07:46:00;;;;;;;30.33;8.93;;;8.60;99.90;;;;;;5056554;28;20028;-81
2021/12/17 07:48:27;;;;;;;46.00;11.65;;;8.60;99.90;;;;;;5064559;28;20514;-82
2021/12/17 07:50:52;;;;;;;38.85;12.38;;;8.60;99.90;;;;;;5062446;28;20392;-81
2021/12/17 07:53:19;;;;;;;31.05;9.90;;;8.70;99.90;;;;;;5058663;28;20551;-81
2021/12/17 07:55:45;;;;;;;34.80;10.13;;;8.70;99.90;;;;;;5052568;28;20502;-81
2021/12/17 07:58:11;;;;;;;31.08;9.23;;;8.70;99.90;;;;;;5073479;28;20241;-82
2021/12/17 08:00:37;;;;;;;34.83;7.97;;;8.70;99.90;;;;;;5073038;28;20046;-82
2021/12/17 08:03:03;;;;;;;29.90;9.00;;;8.70;99.90;;;;;;5061984;28;20107;-82
2021/12/17 08:05:28;;;;;;;30.98;7.35;;;8.80;99.90;;;;;;5066778;28;20105;-82
2021/12/17 08:07:54;;;;;;;30.10;7.00;;;8.70;99.90;;;;;;5060163;28;20036;-81
2021/12/17 08:10:20;;;;;;;31.58;6.47;;;8.70;99.90;;;;;;5073557;28;20021;-81
2021/12/17 08:12:45;;;;;;;33.35;7.20;;;8.70;99.90;;;;;;5073029;28;20252;-84
2021/12/17 08:15:12;;;;;;;30.25;6.85;;;8.80;99.90;;;;;;5066392;28;20100;-82
2021/12/17 08:17:45;;;;;;;23.98;6.32;;;8.80;99.90;;;;;;5068646;28;20028;-81
2021/12/17 08:26:08;;;;;;;31.20;6.75;;;8.80;99.90;;;;;;5063323;28;20039;-82
2021/12/17 08:28:25;;;;;;;24.83;5.82;;;8.80;99.90;;;;;;5073958;28;20040;-82
2021/12/17 08:30:51;;;;;;;28.55;6.82;;;8.80;99.90;;;;;;5078325;28;20028;-82
2021/12/17 08:33:20;;;;;;;28.33;7.05;;;8.80;99.90;;;;;;5066055;28;20480;-82
2021/12/17 08:35:46;;;;;;;30.20;6.77;;;8.90;99.90;;;;;;5068367;28;20025;-82
2021/12/17 08:38:12;;;;;;;28.35;6.43;;;8.90;99.90;;;;;;5070744;28;20267;-83
2021/12/17 08:40:38;;;;;;;25.23;7.00;;;8.80;99.90;;;;;;5074093;28;20107;-83
2021/12/17 08:43:04;;;;;;;29.25;6.63;;;8.90;99.90;;;;;;5071673;28;20048;-83
2021/12/17 08:45:30;;;;;;;24.20;7.10;;;8.90;99.90;;;;;;5066941;28;20024;-84
2021/12/17 08:47:56;;;;;;;27.17;7.65;;;8.90;99.90;;;;;;5049377;28;20036;-83
2021/12/17 08:50:22;;;;;;;26.83;6.63;;;9.00;99.90;;;;;;5072564;28;20043;-83
2021/12/17 08:52:47;;;;;;;26.25;7.35;;;8.90;99.90;;;;;;5071707;28;20534;-83
2021/12/17 08:55:14;;;;;;;22.15;6.45;;;9.00;99.90;;;;;;5054493;28;20035;-82
2021/12/17 08:57:40;;;;;;;20.63;6.60;;;9.00;99.90;;;;;;5072990;28;20036;-83
2021/12/17 09:00:09;;;;;;;25.23;6.45;;;9.00;99.90;;;;;;5056643;28;20416;-83
2021/12/17 09:02:36;;;;;;;24.98;6.70;;;9.00;99.90;;;;;;5071703;28;20039;-83
2021/12/17 09:05:07;;;;;;;23.40;6.40;;;9.00;99.90;;;;;;5067515;28;20020;-83
2021/12/17 09:07:33;;;;;;;19.00;5.90;;;9.10;99.90;;;;;;5048986;28;20044;-83
2021/12/17 09:09:59;;;;;;;25.60;6.28;;;9.00;99.90;;;;;;5059651;28;20036;-82
2021/12/17 09:12:25;;;;;;;16.45;5.75;;;9.10;99.90;;;;;;5063716;28;20021;-83
2021/12/17 09:14:51;;;;;;;19.17;6.18;;;9.00;99.90;;;;;;5064885;28;20105;-83
2021/12/17 09:17:18;;;;;;;19.52;6.38;;;9.10;99.90;;;;;;5064755;28;20172;-82
2021/12/17 09:19:44;;;;;;;19.77;5.63;;;9.10;99.90;;;;;;5073224;28;20016;-82
2021/12/17 09:22:10;;;;;;;16.60;6.03;;;9.10;99.90;;;;;;5073530;28;20028;-83
2021/12/17 09:24:35;;;;;;;19.27;6.03;;;9.20;99.90;;;;;;5072718;28;20029;-82
2021/12/17 09:27:01;;;;;;;14.43;5.45;;;9.20;99.90;;;;;;5067978;28;20519;-83
2021/12/17 09:29:27;;;;;;;18.48;6.07;;;9.20;99.90;;;;;;5069428;28;20029;-82
2021/12/17 09:31:53;;;;;;;14.55;5.57;;;9.20;99.90;;;;;;5053947;28;20056;-82
2021/12/17 09:34:18;;;;;;;17.15;6.32;;;9.30;99.90;;;;;;5054144;28;20032;-83
2021/12/17 09:36:44;;;;;;;22.05;6.53;;;9.30;99.90;;;;;;5072039;28;20098;-83
2021/12/17 09:39:10;;;;;;;18.13;5.78;;;9.30;99.90;;;;;;5074375;28;20025;-83
2021/12/17 09:41:36;;;;;;;14.45;5.18;;;9.30;99.90;;;;;;5071541;28;20043;-82
2021/12/17 09:44:02;;;;;;;15.80;5.47;;;9.40;99.90;;;;;;5071214;28;20025;-83
2021/12/17 09:46:27;;;;;;;17.33;6.57;;;9.30;99.90;;;;;;5071573;28;20034;-83
2021/12/17 09:48:54;;;;;;;19.33;5.82;;;9.40;99.90;;;;;;5053124;28;20116;-83
2021/12/17 09:51:20;;;;;;;17.70;5.22;;;9.40;99.90;;;;;;5053328;28;20070;-83
2021/12/17 09:53:47;;;;;;;16.55;5.55;;;9.40;99.90;;;;;;5070717;28;20029;-81
2021/12/17 09:56:13;;;;;;;17.75;5.80;;;9.40;99.90;;;;;;5062665;28;20025;-81
2021/12/17 09:58:39;;;;;;;16.80;5.68;;;9.40;73.70;;;;;;5070473;28;20029;-81
2021/12/17 10:01:05;;;;;;;14.90;5.50;;;9.40;83.40;;;;;;5070150;28;20033;-81
2021/12/17 10:03:31;;;;;;;18.77;8.70;;;9.50;45.10;;;;;;5070504;28;20025;-81
2021/12/17 10:05:57;;;;;;;17.13;6.30;;;9.50;50.90;;;;;;5052333;28;20032;-81
2021/12/17 10:08:24;;;;;;;14.85;6.15;;;9.60;11.40;;;;;;5070499;28;20025;-81
2021/12/17 10:11:02;;;;;;;12.15;5.63;;;9.50;13.60;;;;;;5070165;28;20024;-81
2021/12/17 10:13:33;;;;;;;13.63;6.85;;;9.60;14.60;;;;;;5070625;28;20089;-81
2021/12/17 10:16:07;;;;;;;13.68;6.88;;;9.60;1.00;;;;;;5072954;28;20037;-81
2021/12/17 10:18:36;;;;;;;14.95;6.28;;;9.70;1.00;;;;;;5074742;28;20031;-81
2021/12/17 10:21:10;;;;;;;13.18;6.00;;;9.70;1.00;;;;;;5055960;28;20074;-81
2021/12/17 10:23:36;;;;;;;12.93;6.47;;;9.80;1.00;;;;;;5075552;28;20075;-81
2021/12/17 10:26:03;;;;;;;12.50;6.47;;;9.80;1.00;;;;;;5074817;28;20086;-81
2021/12/17 10:28:30;;;;;;;17.15;6.57;;;9.80;1.00;;;;;;5073550;28;20560;-81
2021/12/17 10:30:56;;;;;;;13.65;6.05;;;9.80;1.00;;;;;;5070527;28;20095;-81
2021/12/17 10:33:24;;;;;;;12.70;6.68;;;9.90;1.00;;;;;;5073842;28;20021;-81
2021/12/17 10:35:52;;;;;;;10.50;5.70;;;9.90;1.00;;;;;;5056268;28;20068;-81
2021/12/17 10:38:24;;;;;;;9.80;5.90;;;9.90;1.00;;;;;;5054248;28;20047;-81
2021/12/17 10:41:01;;;;;;;13.30;6.40;;;9.90;1.00;;;;;;5066605;28;20318;-81
2021/12/17 10:43:33;;;;;;;13.93;7.53;;;10.00;1.00;;;;;;5064046;28;20033;-82
2021/12/17 10:46:10;;;;;;;9.27;5.60;;;10.00;1.00;;;;;;5073725;28;20083;-81
2021/12/17 10:51:18;;;;;;;9.60;5.25;;;10.00;1.00;;;;;;5074129;28;20432;-81
2021/12/17 10:53:53;;;;;;;7.75;5.43;;;10.00;1.00;;;;;;5068841;28;20028;-81
2021/12/17 10:56:23;;;;;;;7.20;5.13;;;10.00;1.00;;;;;;5073504;28;20540;-81
2021/12/17 10:58:56;;;;;;;;;;;10.00;1.00;;;;;;5066645;28;20489;-81
2021/12/17 11:01:46;;;;;;;8.82;4.35;;;10.00;1.00;;;;;;5073498;28;19908;-81
2021/12/17 11:04:15;;;;;;;7.05;4.85;;;10.00;1.00;;;;;;5040685;28;20415;-81
2021/12/17 11:06:48;;;;;;;7.57;5.15;;;10.10;1.00;;;;;;5065900;28;20024;-81
2021/12/17 11:09:50;;;;;;;10.25;5.90;;;10.10;1.00;;;;;;5047772;28;20123;-81
2021/12/17 11:12:40;;;;;;;5.97;4.43;;;10.10;1.00;;;;;;5038512;28;20024;-81
2021/12/17 11:15:19;;;;;;;8.63;4.75;;;10.10;1.00;;;;;;5067227;28;20089;-81
2021/12/17 11:18:05;;;;;;;5.68;4.05;;;10.10;1.00;;;;;;5044758;28;20474;-81
2021/12/17 11:20:37;;;;;;;5.38;3.53;;;10.20;1.00;;;;;;5065035;28;20021;-81
2021/12/17 11:23:08;;;;;;;8.65;4.13;;;10.10;1.00;;;;;;5061683;28;20035;-81
2021/12/17 11:25:34;;;;;;;;;;;10.00;1.00;;;;;;5074945;28;20029;-81
2021/12/17 11:28:00;;;;;;;5.30;4.13;;;10.00;1.00;;;;;;5072491;28;19916;-81
2021/12/17 11:30:30;;;;;;;7.32;4.20;;;10.20;1.00;;;;;;5060770;28;20476;-82
2021/12/17 11:33:01;;;;;;;6.00;3.95;;;10.10;1.00;;;;;;5072605;28;20126;-81
2021/12/17 11:35:27;;;;;;;;;;;10.10;1.00;;;;;;5069079;28;20383;-81
2021/12/17 11:37:59;;;;;;;7.32;4.30;;;10.10;99.90;;;;;;5069990;28;19909;-81
2021/12/17 11:40:27;;;;;;;7.13;2.80;;;10.20;1.00;;;;;;5067282;28;20032;-82
2021/12/17 11:43:15;;;;;;;3.15;2.30;;;10.10;99.90;;;;;;5055014;28;20048;-82
2021/12/17 11:45:44;;;;;;;4.10;3.17;;;10.00;99.90;;;;;;5065269;28;20052;-81
2021/12/17 11:48:19;;;;;;;4.53;2.85;;;10.10;99.90;;;;;;5065330;28;20036;-81
2021/12/17 11:51:04;;;;;;;6.00;3.78;;;10.10;99.90;;;;;;5078738;28;20506;-81
2021/12/17 11:53:30;;;;;;;3.33;2.70;;;10.10;99.90;;;;;;5074559;28;20103;-81
2021/12/17 11:55:58;;;;;;;3.95;2.85;;;10.10;99.90;;;;;;5073327;28;20024;-81
2021/12/17 11:58:45;;;;;;;4.13;2.38;;;10.20;99.90;;;;;;5076942;28;20025;-81
2021/12/17 12:01:11;;;;;;;2.67;2.08;;;10.20;99.90;;;;;;5046505;28;20017;-81
2021/12/17 12:03:37;;;;;;;3.15;2.63;;;10.20;99.90;;;;;;5072263;28;20021;-82
2021/12/17 12:06:03;;;;;;;3.03;2.60;;;10.20;99.90;;;;;;5072098;28;20388;-81
2021/12/17 12:08:34;;;;;;;3.88;2.40;;;10.20;99.90;;;;;;5075457;28;20067;-80
2021/12/17 12:11:16;;;;;;;3.30;2.20;;;10.20;99.90;;;;;;5072285;28;20070;-83
2021/12/17 12:13:48;;;;;;;3.47;2.75;;;10.20;99.90;;;;;;5072191;28;20033;-83
2021/12/17 12:16:19;;;;;;;3.47;2.75;;;10.20;99.90;;;;;;5064141;28;20107;-83
2021/12/17 12:18:49;;;;;;;3.58;3.20;;;10.20;99.90;;;;;;5072320;28;20032;-83
2021/12/17 12:21:31;;;;;;;4.95;3.63;;;10.20;99.90;;;;;;5072684;28;20072;-83
2021/12/17 12:24:10;;;;;;;3.97;3.13;;;10.20;99.90;;;;;;5052506;28;20124;-81
2021/12/17 12:26:50;;;;;;;3.90;3.20;;;10.20;99.90;;;;;;5058179;28;20060;-83
2021/12/17 12:29:21;;;;;;;4.07;2.88;;;10.20;99.90;;;;;;5061580;28;20096;-82
2021/12/17 12:31:53;;;;;;;4.78;3.60;;;10.10;99.90;;;;;;5071986;28;20057;-84
2021/12/17 12:34:35;;;;;;;5.35;3.75;;;10.10;99.90;;;;;;5072571;28;20025;-83
2021/12/17 12:37:07;;;;;;;4.40;3.17;;;10.20;99.90;;;;;;5061462;28;20435;-83
2021/12/17 12:39:41;;;;;;;3.58;2.90;;;10.20;99.90;;;;;;5070019;28;20036;-82
2021/12/17 12:42:19;;;;;;;3.08;2.50;;;10.30;99.90;;;;;;5059777;28;20068;-82
2021/12/17 12:44:44;;;;;;;4.45;2.50;;;10.20;99.90;;;;;;5059243;28;20021;-83
2021/12/17 12:47:13;;;;;;;3.72;2.90;;;10.10;99.90;;;;;;5053864;28;20051;-82
2021/12/17 12:49:58;;;;;;;5.43;3.85;;;10.10;99.90;;;;;;5072651;28;20110;-82
2021/12/17 12:52:44;;;;;;;9.43;8.27;;;10.10;99.90;;;;;;5070492;28;20271;-82
2021/12/17 12:55:26;;;;;;;18.63;15.15;;;10.20;99.90;;;;;;5053149;28;20119;-82
2021/12/17 12:57:59;;;;;;;20.17;16.15;;;10.10;99.90;;;;;;5073932;28;20111;-82
2021/12/17 13:00:42;;;;;;;22.40;18.15;;;10.20;99.90;;;;;;5070257;28;20468;-82
2021/12/17 13:03:07;;;;;;;15.00;12.40;;;10.20;99.90;;;;;;5069803;28;20020;-81
2021/12/17 13:05:34;;;;;;;16.48;13.13;;;10.20;99.90;;;;;;5071739;28;20388;-82
2021/12/17 13:08:04;;;;;;;10.27;9.18;;;10.10;99.90;;;;;;5070967;28;20472;-82
2021/12/17 13:10:43;;;;;;;14.38;11.23;;;10.10;99.90;;;;;;5070829;28;20021;-82
2021/12/17 13:13:19;;;;;;;24.45;18.48;;;10.10;99.90;;;;;;5071882;28;20017;-81
2021/12/17 13:16:15;;;;;;;15.93;12.35;;;10.10;99.90;;;;;;5071953;28;20528;-82
2021/12/17 13:24:06;;;;;;;12.18;8.80;;;10.10;99.90;;;;;;5064977;28;20123;-82
2021/12/17 13:26:32;;;;;;;6.65;4.60;;;10.10;99.90;;;;;;5073388;28;20020;-81
2021/12/17 13:29:10;;;;;;;5.20;3.92;;;10.10;99.90;;;;;;5070490;28;20037;-81
2021/12/17 13:31:48;;;;;;;4.00;3.60;;;10.10;99.90;;;;;;5070809;28;20077;-83
2021/12/17 13:34:32;;;;;;;4.63;3.78;;;10.10;99.90;;;;;;5070241;28;20097;-83
2021/12/17 13:37:10;;;;;;;4.80;3.53;;;10.10;99.90;;;;;;5064226;28;20021;-83
2021/12/17 13:40:00;;;;;;;3.10;2.50;;;10.00;99.90;;;;;;5046395;28;20116;-83
2021/12/17 13:42:27;;;;;;;4.70;3.15;;;10.00;99.90;;;;;;5067279;28;20049;-83
2021/12/17 13:45:07;;;;;;;9.60;6.15;;;10.10;99.90;;;;;;5067458;28;20044;-83
2021/12/17 13:47:47;;;;;;;9.00;7.30;;;10.10;99.90;;;;;;5048802;28;20088;-83
2021/12/17 13:50:29;;;;;;;7.88;6.22;;;10.10;99.90;;;;;;5050390;28;20025;-83
2021/12/17 13:53:04;;;;;;;5.85;4.72;;;10.10;99.90;;;;;;5064167;28;20071;-82
2021/12/17 13:55:33;;;;;;;4.35;3.60;;;10.00;99.90;;;;;;5079154;28;20028;-82
2021/12/17 13:58:05;;;;;;;3.38;2.58;;;10.00;99.90;;;;;;5085079;28;20024;-82
2021/12/17 14:00:39;;;;;;;3.15;2.45;;;10.00;99.90;;;;;;5084396;28;20055;-82
2021/12/17 14:03:05;;;;;;;4.63;2.47;;;10.00;99.90;;;;;;5081626;28;20476;-82
2021/12/17 14:05:40;;;;;;;3.65;2.88;;;10.00;99.90;;;;;;5065603;28;20031;-82
2021/12/17 14:08:10;;;;;;;7.57;4.47;;;10.00;99.90;;;;;;5070374;28;20051;-82
2021/12/17 14:10:37;;;;;;;8.20;5.43;;;10.00;99.90;;;;;;5081525;28;20078;-82
2021/12/17 14:13:04;;;;;;;4.38;3.35;;;9.90;99.90;;;;;;5081811;28;20029;-82
2021/12/17 14:15:35;;;;;;;6.90;5.18;;;9.90;99.90;;;;;;5064841;28;20032;-82
2021/12/17 14:18:08;;;;;;;5.30;4.57;;;10.00;99.90;;;;;;5064205;28;20020;-82
2021/12/17 14:20:40;;;;;;;10.13;7.43;;;9.90;99.90;;;;;;5084129;28;20016;-82
2021/12/17 14:23:12;;;;;;;18.48;14.25;;;9.90;1.00;;;;;;5068054;28;20034;-82
2021/12/17 14:25:44;;;;;;;7.65;5.70;;;9.90;1.00;;;;;;5084639;28;20039;-81
2021/12/17 14:28:11;;;;;;;8.43;6.65;;;9.90;99.90;;;;;;5086531;28;20074;-82
2021/12/17 14:30:38;;;;;;;6.00;4.72;;;9.90;99.90;;;;;;5086156;28;20491;-82
2021/12/17 14:33:14;;;;;;;10.55;6.45;;;9.80;99.90;;;;;;5085643;28;20103;-81
2021/12/17 14:35:49;;;;;;;5.65;4.80;;;9.90;99.90;;;;;;5085230;28;20499;-82
2021/12/17 14:38:16;;;;;;;9.75;7.00;;;9.80;1.00;;;;;;5086193;28;20024;-82
2021/12/17 14:40:47;;;;;;;8.02;6.28;;;9.80;99.90;;;;;;5087214;28;20028;-82
2021/12/17 14:43:37;;;;;;;5.75;4.50;;;9.80;99.90;;;;;;5085752;28;20040;-81
2021/12/17 14:46:22;;;;;;;4.78;3.80;;;9.80;99.90;;;;;;5086103;28;20376;-82
2021/12/17 14:57:14;;;;;;;5.53;3.97;;;9.80;1.00;;;;;;5084602;28;20485;-82
2021/12/17 15:05:44;;;;;;;5.05;3.47;;;9.80;1.00;;;;;;5082345;28;20044;-81
2021/12/17 15:08:10;;;;;;;7.57;5.55;;;9.70;1.00;;;;;;5064586;28;20028;-81
2021/12/17 15:10:36;;;;;;;6.07;4.78;;;9.70;1.00;;;;;;5084649;28;20443;-82
2021/12/17 15:13:03;;;;;;;8.63;6.70;;;9.70;1.00;;;;;;5085119;28;20031;-82
2021/12/17 15:15:31;;;;;;;11.45;9.07;;;9.60;1.00;;;;;;5084760;28;20035;-81
2021/12/17 15:17:57;;;;;;;10.75;8.90;;;9.60;1.00;;;;;;5082916;28;20020;-82
2021/12/17 15:20:26;;;;;;;7.38;5.75;;;9.70;1.00;;;;;;5084544;28;20020;-81
2021/12/17 15:22:52;;;;;;;7.63;4.95;;;9.60;1.00;;;;;;5083160;28;20020;-81
2021/12/17 15:25:18;;;;;;;6.05;4.50;;;9.60;1.00;;;;;;5082942;28;20357;-81
2021/12/17 15:27:44;;;;;;;6.40;4.38;;;9.70;1.00;;;;;;5086564;28;20087;-82
2021/12/17 15:30:20;;;;;;;5.50;3.83;;;9.60;1.00;;;;;;5082717;28;20484;-82
2021/12/17 15:32:46;;;;;;;5.38;3.70;;;9.60;1.00;;;;;;5077371;28;20081;-82
2021/12/17 15:35:13;;;;;;;7.65;3.97;;;9.70;1.00;;;;;;5053432;28;20017;-83
2021/12/17 15:37:40;;;;;;;7.38;4.43;;;9.60;1.00;;;;;;5068049;28;20017;-82
2021/12/17 15:40:07;;;;;;;5.50;3.85;;;9.60;1.00;;;;;;5064202;28;20030;-83
2021/12/17 15:42:32;;;;;;;7.03;3.55;;;9.60;1.00;;;;;;5077431;28;20051;-82
2021/12/17 15:44:58;;;;;;;5.40;3.70;;;9.60;1.00;;;;;;5059086;28;20017;-83
2021/12/17 15:47:23;;;;;;;5.90;4.32;;;9.60;1.00;;;;;;5075753;28;20041;-83
2021/12/17 15:49:49;;;;;;;5.45;2.95;;;9.60;1.00;;;;;;5070061;28;20034;-83
2021/12/17 15:52:15;;;;;;;5.47;3.72;;;9.60;1.00;;;;;;5050944;28;20035;-83
2021/12/17 15:54:41;;;;;;;4.75;3.40;;;9.50;1.00;;;;;;5055534;28;20028;-82
2021/12/17 15:57:07;;;;;;;10.57;6.10;;;9.50;1.00;;;;;;5071026;28;20494;-83
2021/12/17 15:59:33;;;;;;;6.40;4.10;;;9.50;1.00;;;;;;5071439;28;20040;-82
2021/12/17 16:02:00;;;;;;;8.35;4.35;;;9.50;1.00;;;;;;5057361;28;20029;-82
2021/12/17 16:04:28;;;;;;;6.00;4.20;;;9.50;1.00;;;;;;5064147;28;20325;-83
2021/12/17 16:06:54;;;;;;;8.40;6.07;;;9.50;1.00;;;;;;5068575;28;20025;-82
2021/12/17 16:16:49;;;;;;;6.03;4.38;;;9.50;1.00;;;;;;5068975;28;20502;-82